Latest Weather Observations for Low Head

IDT60801

Issued at 5:35 pm EDT Saturday 1 November 2014 (issued every 30 minutes, with the page automatically refreshed every 10 minutes)

About weather observations | Map of weather stations | Latest weather observations for TAS | Other Formats
Station Details ID: 091293 Name: LOW HEAD Lat: -41.05 Lon: 146.79 Height: 3.0 m
Data from the previous 72 hours. | See also: Recent months at Low Head
Date/Time
EDT
Temp
°C
App
Temp
°C
Dew
Point
Rel
Hum
%
Delta-T
°C
Wind Press
QNH
hPa
Press
MSL
hPa
Rain
since 9 am
mm
Dir
 
Spd
km/h
Gust
km/h
Spd
kts
Gust
kts
01/05:30pm 10.6 -2.2 4.4 65 2.8 W 61 80 33 43 1000.0 - 0.2
01/05:20pm 11.5 -0.1 3.9 59 3.4 WSW 54 85 29 46 999.8 - 0.2
01/05:13pm 12.0 1.0 2.9 53 4.0 WSW 50 67 27 36 999.4 - 0.2
01/05:00pm 12.6 0.9 3.5 54 4.1 W 54 65 29 35 999.3 - 0.2
01/04:30pm 12.7 1.7 2.8 51 4.3 W 50 61 27 33 998.7 - 0.2
01/04:00pm 13.5 1.4 3.0 49 4.7 W 56 69 30 37 998.4 - 0.2
01/03:30pm 14.0 3.6 4.0 51 4.6 W 48 57 26 31 998.0 - 0.2
01/03:00pm 13.9 5.1 5.5 57 4.0 W 41 61 22 33 997.7 997.7 0.2
01/02:30pm 12.8 1.9 5.3 60 3.5 W 52 70 28 38 997.7 - 0.2
01/02:12pm 13.8 3.1 6.6 62 3.5 W 52 80 28 43 997.3 - 0.0
01/02:00pm 14.5 4.1 6.0 56 4.1 W 50 61 27 33 997.3 - 0.0
01/01:30pm 14.7 5.0 6.0 56 4.2 WNW 46 56 25 30 997.0 - 0.0
01/01:00pm 13.6 4.9 7.8 68 2.9 W 43 56 23 30 997.1 - 0.0
01/12:30pm 15.1 5.3 7.0 58 4.0 WNW 48 57 26 31 996.9 - 0.0
01/12:00pm 14.6 5.4 6.4 58 4.0 WNW 44 50 24 27 996.9 996.9 0.0
01/11:30am 14.1 4.4 6.0 58 3.9 W 46 56 25 30 997.0 - 0.0
01/11:00am 14.2 4.7 6.6 60 3.7 W 46 56 25 30 997.2 - 0.0
01/10:30am 13.9 5.2 6.0 59 3.8 W 41 48 22 26 996.8 - 0.0
01/10:00am 13.5 4.0 6.5 62 3.4 W 46 56 25 30 996.2 - 0.0
01/09:30am 13.6 4.2 7.3 65 3.1 W 46 57 25 31 995.7 - 0.0
01/09:00am 13.7 5.2 9.4 75 2.2 W 44 54 24 29 995.1 995.1 1.2
01/08:30am 13.5 5.1 9.8 78 1.9 W 44 54 24 29 994.6 - 1.2
01/08:00am 13.4 5.4 10.3 81 1.6 W 43 50 23 27 994.2 - 1.2
01/07:30am 13.3 5.6 11.4 88 1.0 WNW 43 50 23 27 994.0 - 1.2
01/07:00am 13.3 5.7 11.8 91 0.8 WNW 43 52 23 28 994.4 - 1.2
01/06:30am 13.1 6.2 11.6 91 0.8 WNW 39 46 21 25 993.7 - 1.2
01/06:00am 13.3 6.3 11.4 88 1.0 WNW 39 46 21 25 993.9 993.9 0.8
01/05:30am 13.6 8.2 12.1 91 0.8 NW 32 37 17 20 993.6 - 0.6
01/05:00am 14.0 8.5 12.4 90 0.9 WNW 33 41 18 22 993.9 - 0.4
01/04:30am 14.3 9.3 12.1 87 1.2 WNW 30 33 16 18 993.3 - 0.2
01/04:00am 14.4 9.4 12.2 87 1.2 WNW 30 35 16 19 993.7 - 0.2
01/03:30am 14.2 10.2 11.8 85 1.3 W 24 28 13 15 993.1 - 0.2
01/03:00am 14.6 10.8 11.3 80 1.8 WSW 22 28 12 15 993.2 993.1 0.2
01/02:30am 14.5 10.8 11.5 82 1.6 W 22 30 12 16 993.6 - 0.2
01/02:00am 13.9 12.3 11.7 86 1.2 S 11 13 6 7 993.3 - 0.2
01/01:30am 13.9 11.9 11.5 85 1.3 SSE 13 17 7 9 992.8 - 0.2
01/01:00am 13.9 12.1 10.7 81 1.7 SE 11 13 6 7 993.7 - 0.2
01/12:30am 14.6 12.5 11.0 79 1.9 E 13 19 7 10 994.6 - 0.2
01/12:00am 14.7 13.1 11.6 82 1.7 ESE 11 17 6 9 995.5 995.5 0.2
 
Date/Time
EDT
Temp
°C
App
Temp
°C
Dew
Point
Rel
Hum
%
Delta-T
°C
Wind Press
QNH
hPa
Press
MSL
hPa
Rain
since 9 am
mm
Dir
 
Spd
km/h
Gust
km/h
Spd
kts
Gust
kts
31/11:30pm 14.8 12.4 11.5 80 1.8 SW 15 22 8 12 996.5 - 0.2
31/11:00pm 14.7 13.3 11.0 78 2.0 S 9 13 5 7 996.2 - 0.2
31/10:30pm 15.3 12.3 10.8 74 2.4 E 17 24 9 13 996.5 - 0.2
31/10:00pm 15.3 12.1 11.2 76 2.2 E 19 30 10 16 997.0 - 0.2
31/09:30pm 14.8 12.1 11.7 82 1.7 ENE 17 24 9 13 997.7 - 0.2
31/09:00pm 14.8 12.2 11.9 83 1.6 ENE 17 20 9 11 998.3 998.4 0.2
31/08:30pm 14.4 11.4 12.0 85 1.3 E 19 24 10 13 998.8 - 0.2
31/08:00pm 14.4 9.6 11.8 84 1.4 ENE 28 32 15 17 999.2 - 0.2
31/07:30pm 14.3 9.6 12.1 87 1.2 ENE 28 32 15 17 999.9 - 0.2
31/07:00pm 14.3 9.6 11.9 85 1.3 ENE 28 32 15 17 1000.0 - 0.2
31/06:30pm 14.5 9.7 11.5 82 1.6 ENE 28 30 15 16 1000.4 - 0.2
31/06:00pm 14.6 11.3 11.6 82 1.6 NE 20 26 11 14 1001.1 1001.1 0.2
31/05:30pm 14.7 11.9 11.5 81 1.7 ENE 17 20 9 11 1001.4 - 0.2
31/05:00pm 14.6 11.8 11.4 81 1.7 ENE 17 20 9 11 1002.2 - 0.2
31/04:30pm 15.0 12.9 11.3 78 2.0 ENE 13 15 7 8 1002.9 - 0.2
31/04:00pm 14.9 13.2 11.2 78 2.0 NE 11 13 6 7 1003.8 - 0.2
31/03:30pm 14.9 13.5 11.0 77 2.1 NNE 9 11 5 6 1004.2 - 0.2
31/03:00pm 15.1 13.5 11.4 78 2.0 NNE 11 13 6 7 1004.4 1004.4 0.2
31/02:30pm 14.5 12.0 10.9 79 1.9 N 15 17 8 9 1004.7 - 0.2
31/02:00pm 14.4 11.2 11.4 82 1.6 N 19 20 10 11 1005.2 - 0.2
31/01:30pm 14.6 11.2 11.4 81 1.7 N 20 22 11 12 1005.5 - 0.2
31/01:00pm 14.1 10.8 11.5 84 1.4 NNW 20 24 11 13 1006.2 - 0.2
31/12:30pm 14.0 10.4 12.0 88 1.1 NNW 22 26 12 14 1006.7 - 0.2
31/12:00pm 13.7 10.0 11.6 87 1.1 NNW 22 26 12 14 1006.9 1006.9 0.2
31/11:30am 13.7 10.9 11.3 85 1.3 NW 17 20 9 11 1007.2 - 0.2
31/11:00am 13.3 9.8 10.8 85 1.3 NW 20 24 11 13 1007.7 - 0.2
31/10:30am 13.5 9.2 10.6 82 1.5 NW 24 28 13 15 1008.0 - 0.0
31/10:00am 13.5 9.2 10.8 84 1.4 NW 24 28 13 15 1008.1 - 0.0
31/09:30am 13.5 9.4 10.2 80 1.7 NNW 22 26 12 14 1007.9 - 0.0
31/09:00am 13.5 9.3 9.8 78 1.9 NW 22 26 12 14 1008.3 1008.3 0.2
31/08:30am 13.5 8.7 8.7 73 2.4 NW 24 28 13 15 1008.5 - 0.0
31/08:00am 13.6 9.0 9.5 76 2.1 NW 24 26 13 14 1008.6 - 0.0
31/07:30am 12.9 8.6 9.4 79 1.8 WNW 22 26 12 14 1008.3 - 0.0
31/07:00am 12.5 7.8 9.3 81 1.6 WNW 24 28 13 15 1008.7 - 0.0
31/06:30am 11.6 4.2 9.8 89 0.9 WNW 39 46 21 25 1008.7 - 0.0
31/06:00am 12.4 7.2 10.1 86 1.2 WNW 28 32 15 17 1008.8 1008.8 0.0
31/05:30am 12.3 5.8 10.4 88 1.0 W 35 41 19 22 1008.4 - 0.0
31/05:00am 12.8 8.8 10.3 85 1.3 WNW 22 26 12 14 1008.4 - 0.0
31/04:30am 12.9 8.1 10.4 85 1.3 WNW 26 30 14 16 1008.6 - 0.0
31/04:00am 12.7 7.9 10.2 85 1.3 WNW 26 32 14 17 1008.9 - 0.0
31/03:30am 12.8 7.2 10.1 84 1.4 WNW 30 35 16 19 1009.3 - 0.0
31/03:00am 12.8 7.2 10.1 84 1.4 WNW 30 35 16 19 1009.4 1009.4 0.0
31/02:30am 12.8 6.4 9.5 80 1.7 W 33 39 18 21 1009.6 - 0.0
31/02:00am 12.9 6.3 10.0 82 1.5 WNW 35 39 19 21 1009.7 - 0.0
31/01:30am 12.8 6.5 9.7 81 1.6 WNW 33 39 18 21 1010.1 - 0.0
31/01:00am 12.8 5.4 9.7 81 1.6 WNW 39 43 21 23 1010.3 - 0.0
31/12:30am 13.0 6.8 10.1 82 1.5 WNW 33 41 18 22 1010.6 - 0.0
31/12:00am 12.9 6.9 10.2 84 1.4 WNW 32 35 17 19 1010.7 1010.7 0.0
 
Date/Time
EDT
Temp
°C
App
Temp
°C
Dew
Point
Rel
Hum
%
Delta-T
°C
Wind Press
QNH
hPa
Press
MSL
hPa
Rain
since 9 am
mm
Dir
 
Spd
km/h
Gust
km/h
Spd
kts
Gust
kts
30/11:30pm 13.2 7.7 10.5 84 1.4 WNW 30 33 16 18 1010.6 - 0.0
30/11:00pm 13.4 7.9 10.7 84 1.4 WNW 30 35 16 19 1010.9 - 0.0
30/10:30pm 13.6 7.7 10.5 81 1.6 WNW 32 37 17 20 1011.1 - 0.0
30/10:00pm 13.7 8.3 10.8 83 1.5 WNW 30 35 16 19 1011.1 - 0.0
30/09:30pm 13.8 7.8 10.8 82 1.6 WNW 33 41 18 22 1010.8 - 0.0
30/09:00pm 13.8 7.9 11.0 83 1.5 WNW 33 39 18 21 1010.5 1010.5 0.0
30/08:30pm 14.0 8.4 11.4 84 1.4 NW 32 37 17 20 1010.3 - 0.0
30/08:00pm 14.0 7.3 11.0 82 1.6 WNW 37 44 20 24 1010.1 - 0.0
30/07:30pm 13.9 7.6 11.1 83 1.5 WNW 35 41 19 22 1010.0 - 0.0
30/07:00pm 14.2 7.5 11.0 81 1.7 WNW 37 44 20 24 1009.8 - 0.0
30/06:30pm 14.5 6.6 10.7 78 2.0 WNW 43 50 23 27 1009.5 - 0.0
30/06:00pm 14.8 7.3 11.0 78 2.0 WNW 41 48 22 26 1009.5 1009.4 0.0
30/05:30pm 15.3 7.5 11.0 75 2.3 WNW 43 50 23 27 1009.3 - 0.0
30/05:00pm 15.5 7.4 10.2 70 2.8 WNW 43 52 23 28 1009.1 - 0.0
30/04:30pm 15.5 7.3 10.4 71 2.7 NW 44 54 24 29 1009.2 - 0.0
30/04:00pm 15.5 6.9 10.2 70 2.8 WNW 46 54 25 29 1009.1 - 0.0
30/03:30pm 15.9 7.6 10.2 69 3.0 WNW 44 52 24 28 1009.1 - 0.0
30/03:00pm 15.7 7.4 10.0 69 3.0 NW 44 54 24 29 1008.9 1008.8 0.0
30/02:30pm 16.1 8.0 10.2 68 3.1 WNW 43 50 23 27 1009.5 - 0.0
30/02:00pm 16.1 8.6 10.9 71 2.8 NW 41 50 22 27 1009.3 - 0.0
30/01:30pm 15.9 7.8 10.0 68 3.1 NW 43 50 23 27 1009.5 - 0.0
30/01:00pm 15.7 8.0 10.0 69 3.0 WNW 41 48 22 26 1009.6 - 0.0
30/12:30pm 16.0 9.5 10.3 69 3.0 WNW 35 43 19 23 1009.9 - 0.0
30/12:00pm 15.6 8.7 10.3 70 2.8 NW 37 44 20 24 1009.9 1009.9 0.0
30/11:30am 15.2 8.2 10.0 71 2.7 WNW 37 46 20 25 1010.3 - 0.0
30/11:00am 15.0 7.6 10.0 72 2.6 WNW 39 46 21 25 1010.6 - 0.0
30/10:30am 14.6 7.6 9.8 73 2.5 WNW 37 44 20 24 1010.7 - 0.0
30/10:00am 14.5 7.9 9.9 74 2.4 WNW 35 43 19 23 1010.8 - 0.0
30/09:30am 14.1 7.1 9.8 75 2.2 WNW 37 44 20 24 1010.7 - 0.0
30/09:00am 13.8 7.2 10.1 78 1.9 WNW 35 43 19 23 1010.6 1010.6 0.0
30/08:30am 13.3 6.2 9.6 78 1.9 WNW 37 43 20 23 1010.6 - 0.0
30/08:00am 13.3 6.6 9.6 78 1.9 WNW 35 44 19 24 1010.4 - 0.0
30/07:30am 13.2 6.6 9.9 80 1.7 WNW 35 43 19 23 1010.4 - 0.0
30/07:00am 12.8 6.1 9.5 80 1.7 W 35 44 19 24 1010.1 - 0.0
30/06:30am 12.3 5.1 9.3 82 1.5 WNW 37 44 20 24 1009.8 - 0.0
30/06:00am 12.2 5.4 9.4 83 1.4 WNW 35 43 19 23 1009.5 1009.5 0.0
30/05:30am 12.3 4.8 9.5 83 1.4 WNW 39 44 21 24 1009.7 - 0.0
30/05:00am 12.4 5.2 9.0 80 1.7 WNW 37 44 20 24 1009.3 - 0.0
30/04:30am 12.3 5.1 9.3 82 1.5 WNW 37 43 20 23 1009.8 - 0.0
30/04:00am 12.4 4.9 9.4 82 1.5 WNW 39 43 21 23 1009.9 - 0.0
30/03:30am 12.6 5.4 9.2 80 1.7 WNW 37 43 20 23 1009.7 - 0.0
30/03:00am 12.6 4.7 9.2 80 1.7 WNW 41 48 22 26 1009.7 1009.6 0.0
30/02:30am 13.0 4.5 9.3 78 1.9 W 44 52 24 28 1009.8 - 0.0
30/02:00am 12.9 4.4 8.7 75 2.1 WNW 43 50 23 27 1009.8 - 0.0
30/01:30am 12.9 6.2 9.6 80 1.7 W 35 43 19 23 1010.2 - 0.0
30/01:00am 13.0 6.5 10.3 84 1.4 WNW 35 44 19 24 1010.5 - 0.0
30/12:30am 13.2 6.5 10.9 86 1.2 WNW 37 43 20 23 1010.8 - 0.0
30/12:00am 13.1 7.4 11.0 87 1.1 WNW 32 39 17 21 1010.9 1010.9 0.0
 
Date/Time
EDT
Temp
°C
App
Temp
°C
Dew
Point
Rel
Hum
%
Delta-T
°C
Wind Press
QNH
hPa
Press
MSL
hPa
Rain
since 9 am
mm
Dir
 
Spd
km/h
Gust
km/h
Spd
kts
Gust
kts
29/11:30pm 13.2 6.9 10.9 86 1.2 WNW 35 43 19 23 1011.2 - 0.0
29/11:00pm 13.2 6.5 11.1 87 1.1 WNW 37 43 20 23 1011.2 - 0.0
29/10:30pm 13.1 6.8 11.2 88 1.0 WNW 35 46 19 25 1011.2 - 0.0
29/10:00pm 13.3 4.8 10.6 84 1.4 WNW 46 56 25 30 1011.3 - 0.0
29/09:30pm 13.3 5.2 10.2 81 1.6 WNW 43 50 23 27 1011.2 - 0.0
29/09:00pm 13.3 6.2 10.8 85 1.3 WNW 39 48 21 26 1011.1 1011.1 0.0
29/08:30pm 13.3 5.2 10.6 84 1.4 WNW 44 56 24 30 1010.9 - 0.0
29/08:00pm 13.6 5.9 10.3 80 1.7 WNW 41 48 22 26 1010.9 - 0.0
29/07:30pm 13.8 5.7 10.6 81 1.7 WNW 44 54 24 29 1010.9 - 0.0
29/07:00pm 14.2 6.2 11.0 81 1.7 WNW 44 56 24 30 1010.6 - 0.0
29/06:30pm 14.4 6.5 10.8 79 1.9 WNW 43 50 23 27 1010.6 - 0.0
29/06:00pm 14.3 5.8 10.7 79 1.9 WNW 46 54 25 29 1010.4 1010.4 0.0

Other Formats:

Comma delimited format used in spreadsheet applications
http://www.bom.gov.au/fwo/IDT60801/IDT60801.95964.axf

JavaScript Object Notation format (JSON) in row-major order
http://www.bom.gov.au/fwo/IDT60801/IDT60801.95964.json